createdAt,value
2023-05-07T00:02:02.830Z,12.37
2023-05-07T00:04:30.326Z,12.53
2023-05-07T00:06:57.310Z,13.23
2023-05-07T00:09:24.323Z,13.97
2023-05-07T00:11:51.486Z,13.60
2023-05-07T00:14:18.425Z,13.87
2023-05-07T00:16:45.304Z,13.90
2023-05-07T00:19:12.447Z,15.17
2023-05-07T00:21:39.451Z,14.03
2023-05-07T00:24:06.561Z,14.17
2023-05-07T00:26:33.722Z,15.23
2023-05-07T00:29:00.638Z,14.83
2023-05-07T00:31:27.499Z,13.53
2023-05-07T00:33:54.552Z,12.80
2023-05-07T00:36:21.451Z,14.07
2023-05-07T00:38:48.406Z,15.57
2023-05-07T00:41:15.369Z,14.87
2023-05-07T00:43:42.263Z,16.30
2023-05-07T00:46:09.226Z,16.17
2023-05-07T00:48:36.332Z,16.03
2023-05-07T00:51:03.653Z,16.27
2023-05-07T00:53:31.653Z,15.57
2023-05-07T00:55:58.777Z,14.60
2023-05-07T00:58:25.875Z,14.43
2023-05-07T01:00:52.937Z,14.63
2023-05-07T01:03:20.209Z,14.97
2023-05-07T01:05:49.494Z,15.57
2023-05-07T01:08:17.634Z,15.17
2023-05-07T01:10:46.272Z,15.57
2023-05-07T01:13:15.130Z,15.20
2023-05-07T01:15:43.479Z,15.20
2023-05-07T01:18:11.169Z,15.30
2023-05-07T01:20:38.076Z,14.90
2023-05-07T01:23:06.526Z,14.17
2023-05-07T01:25:34.087Z,14.03
2023-05-07T01:28:03.280Z,13.97
2023-05-07T01:30:35.835Z,14.27
2023-05-07T01:33:11.991Z,13.50
2023-05-07T01:35:41.828Z,13.80
2023-05-07T01:38:09.619Z,13.67
2023-05-07T01:40:36.743Z,12.93
2023-05-07T01:43:04.654Z,13.27
2023-05-07T01:45:35.094Z,12.57
2023-05-07T01:48:03.135Z,12.33
2023-05-07T01:50:31.915Z,13.40
2023-05-07T01:52:59.051Z,12.97
2023-05-07T01:55:26.075Z,12.97
2023-05-07T01:57:53.047Z,13.97
2023-05-07T02:00:20.508Z,12.80
2023-05-07T02:02:47.608Z,14.37
2023-05-07T02:05:27.096Z,12.23
2023-05-07T02:08:02.399Z,13.23
2023-05-07T02:10:31.187Z,12.07
2023-05-07T02:12:59.182Z,12.00
2023-05-07T02:15:26.383Z,13.17
2023-05-07T02:18:07.847Z,13.70
2023-05-07T02:20:35.061Z,13.27
2023-05-07T02:23:02.782Z,13.23
2023-05-07T02:25:31.222Z,13.00
2023-05-07T02:27:59.642Z,12.87
2023-05-07T02:30:40.039Z,13.47
2023-05-07T02:33:08.312Z,15.30
2023-05-07T02:35:35.675Z,16.30
2023-05-07T02:38:03.138Z,14.10
2023-05-07T02:40:30.067Z,14.37
2023-05-07T02:42:57.178Z,13.30
2023-05-07T02:45:24.240Z,14.43
2023-05-07T02:47:53.965Z,13.63
2023-05-07T02:50:21.098Z,13.80
2023-05-07T02:52:48.792Z,12.23
2023-05-07T02:55:16.049Z,14.53
2023-05-07T02:57:43.026Z,14.73
2023-05-07T03:00:21.011Z,14.37
2023-05-07T03:03:00.465Z,13.27
2023-05-07T03:05:27.501Z,13.37
2023-05-07T03:07:54.363Z,14.47
2023-05-07T03:10:21.327Z,14.97
2023-05-07T03:12:48.322Z,12.13
2023-05-07T03:15:17.869Z,13.93
2023-05-07T03:17:44.874Z,15.07
2023-05-07T03:20:12.671Z,16.23
2023-05-07T03:22:41.689Z,13.10
2023-05-07T03:25:09.618Z,12.47
2023-05-07T03:27:36.517Z,14.77
2023-05-07T03:30:04.029Z,15.97
2023-05-07T03:32:30.955Z,14.43
2023-05-07T03:34:58.004Z,16.37
2023-05-07T03:37:24.974Z,16.23
2023-05-07T03:39:51.985Z,15.90
2023-05-07T03:42:20.221Z,14.80
2023-05-07T03:44:50.427Z,12.37
2023-05-07T03:47:17.580Z,12.83
2023-05-07T03:49:45.930Z,13.67
2023-05-07T03:52:13.954Z,15.57
2023-05-07T03:54:41.121Z,15.50
2023-05-07T03:57:08.240Z,15.27
2023-05-07T03:59:35.355Z,16.93
2023-05-07T04:02:05.208Z,16.27
2023-05-07T04:04:34.103Z,18.17
2023-05-07T04:07:01.778Z,18.07
2023-05-07T04:09:30.740Z,13.20
2023-05-07T04:11:58.693Z,16.70
2023-05-07T04:14:25.775Z,16.60
2023-05-07T04:16:53.141Z,16.40
2023-05-07T04:19:20.346Z,16.70
2023-05-07T04:21:50.640Z,18.00
2023-05-07T04:24:17.654Z,17.37
2023-05-07T04:26:46.595Z,17.97
2023-05-07T04:29:13.715Z,18.17
2023-05-07T04:31:40.988Z,16.20
2023-05-07T04:34:08.789Z,16.17
2023-05-07T04:36:35.685Z,17.73
2023-05-07T04:39:08.381Z,17.73
2023-05-07T04:41:37.620Z,18.47
2023-05-07T04:44:07.575Z,18.33
2023-05-07T04:46:35.906Z,17.30
2023-05-07T04:49:04.332Z,16.87
2023-05-07T04:51:33.683Z,17.90
2023-05-07T04:54:02.475Z,16.43
2023-05-07T04:56:31.254Z,15.53
2023-05-07T04:58:59.555Z,17.00
2023-05-07T05:01:26.738Z,17.70
2023-05-07T05:03:53.783Z,16.03
2023-05-07T05:06:21.404Z,16.13
2023-05-07T05:08:48.333Z,16.23
2023-05-07T05:11:16.025Z,16.50
2023-05-07T05:13:43.490Z,17.30
2023-05-07T05:16:16.623Z,17.33
2023-05-07T05:18:43.734Z,17.90
2023-05-07T05:21:12.915Z,17.50
2023-05-07T05:23:41.725Z,17.80
2023-05-07T05:26:09.479Z,18.37
2023-05-07T05:28:37.141Z,19.63
2023-05-07T05:31:05.155Z,17.80
2023-05-07T05:33:36.136Z,18.57
2023-05-07T05:36:06.112Z,18.43
2023-05-07T05:38:33.476Z,18.73
2023-05-07T05:41:01.119Z,19.10
2023-05-07T05:43:29.656Z,20.27
2023-05-07T05:45:57.492Z,20.20
2023-05-07T05:48:24.680Z,21.20
2023-05-07T05:50:52.017Z,20.90
2023-05-07T05:53:19.594Z,20.90
2023-05-07T05:55:46.949Z,21.40
2023-05-07T05:58:13.927Z,22.43
2023-05-07T06:00:47.096Z,20.27
2023-05-07T06:03:14.428Z,21.93
2023-05-07T06:05:42.655Z,22.43
2023-05-07T06:08:09.726Z,21.40
2023-05-07T06:10:38.610Z,21.63
2023-05-07T06:13:08.832Z,22.63
2023-05-07T06:15:37.813Z,21.60
2023-05-07T06:18:09.922Z,22.67
2023-05-07T06:20:37.623Z,21.37
2023-05-07T06:23:08.683Z,24.10
2023-05-07T06:25:35.822Z,22.87
2023-05-07T06:28:02.808Z,22.73
2023-05-07T06:30:30.965Z,23.27
2023-05-07T06:32:58.204Z,21.03
2023-05-07T06:35:26.442Z,21.27
2023-05-07T06:37:54.245Z,22.33
2023-05-07T06:40:24.821Z,21.80
2023-05-07T06:42:51.726Z,21.87
2023-05-07T06:45:45.281Z,21.60
2023-05-07T06:48:12.561Z,21.73
2023-05-07T06:50:49.957Z,21.17
2023-05-07T06:53:17.087Z,22.00
2023-05-07T06:55:44.418Z,20.43
2023-05-07T06:58:13.248Z,21.70
2023-05-07T07:00:41.817Z,21.90
2023-05-07T07:03:09.128Z,21.67
2023-05-07T07:05:36.764Z,21.53
2023-05-07T07:08:05.291Z,21.23
2023-05-07T07:10:32.342Z,20.93
2023-05-07T07:13:00.698Z,21.37
2023-05-07T07:15:29.711Z,20.37
2023-05-07T07:17:57.694Z,20.03
2023-05-07T07:20:25.674Z,20.23
2023-05-07T07:22:52.941Z,20.40
2023-05-07T07:25:19.822Z,20.33
2023-05-07T07:27:48.738Z,19.77
2023-05-07T07:30:16.635Z,18.50
2023-05-07T07:32:48.031Z,18.33
2023-05-07T07:35:16.070Z,19.43
2023-05-07T07:37:44.662Z,17.57
2023-05-07T07:40:13.844Z,17.60
2023-05-07T07:42:41.168Z,19.40
2023-05-07T07:45:09.322Z,18.13
2023-05-07T07:47:41.431Z,18.40
2023-05-07T07:50:09.769Z,17.00
2023-05-07T07:52:37.036Z,18.80
2023-05-07T07:55:04.489Z,18.00
2023-05-07T07:57:31.838Z,17.60
2023-05-07T07:59:58.946Z,16.57
2023-05-07T08:02:26.332Z,16.17
2023-05-07T08:04:53.410Z,16.27
2023-05-07T08:07:21.645Z,16.20
2023-05-07T08:09:49.819Z,15.80
2023-05-07T08:12:20.601Z,17.70
2023-05-07T08:14:47.625Z,16.63
2023-05-07T08:17:16.900Z,16.33
2023-05-07T08:19:45.063Z,15.20
2023-05-07T08:22:14.932Z,15.63
2023-05-07T08:24:42.183Z,16.07
2023-05-07T08:27:09.882Z,15.57
2023-05-07T08:29:37.301Z,14.53
2023-05-07T08:32:04.480Z,15.43
2023-05-07T08:34:31.588Z,15.03
2023-05-07T08:37:01.684Z,15.80
2023-05-07T08:39:29.913Z,14.70
2023-05-07T08:41:58.472Z,15.27
2023-05-07T08:44:31.163Z,15.40
2023-05-07T08:47:00.563Z,14.80
2023-05-07T08:49:29.245Z,13.03
2023-05-07T08:51:56.869Z,13.60
2023-05-07T08:54:26.160Z,13.50
2023-05-07T08:56:53.501Z,14.23
2023-05-07T08:59:21.032Z,15.00
2023-05-07T09:01:48.563Z,13.83
2023-05-07T09:04:16.788Z,15.13
2023-05-07T09:06:44.770Z,13.63
2023-05-07T09:09:18.567Z,23.27
2023-05-07T09:11:45.834Z,12.80
2023-05-07T09:14:15.428Z,12.90
2023-05-07T09:16:44.883Z,13.57
2023-05-07T09:19:12.536Z,12.03
2023-05-07T09:21:44.227Z,12.43
2023-05-07T09:24:12.762Z,12.17
2023-05-07T09:26:42.160Z,14.07
2023-05-07T09:29:11.702Z,14.20
2023-05-07T09:31:39.580Z,13.87
2023-05-07T09:34:09.277Z,13.63
2023-05-07T09:36:39.066Z,12.27
2023-05-07T09:39:06.373Z,12.47
2023-05-07T09:41:33.544Z,12.67
2023-05-07T09:44:10.693Z,12.90
2023-05-07T09:46:51.186Z,10.80
2023-05-07T09:49:25.159Z,10.23
2023-05-07T09:52:01.809Z,10.13
2023-05-07T09:54:32.370Z,10.17
2023-05-07T09:57:00.313Z,11.43
2023-05-07T09:59:32.393Z,11.87
2023-05-07T10:02:04.700Z,10.23
2023-05-07T10:04:35.523Z,8.23
2023-05-07T10:07:04.226Z,8.57
2023-05-07T10:09:32.013Z,7.93
2023-05-07T10:12:00.327Z,6.73
2023-05-07T10:14:30.145Z,7.90
2023-05-07T10:16:58.600Z,7.93
2023-05-07T10:19:27.434Z,7.20
2023-05-07T10:22:01.028Z,7.07
2023-05-07T10:24:37.891Z,6.07
2023-05-07T10:27:15.432Z,6.43
2023-05-07T10:30:13.014Z,6.47
2023-05-07T10:32:49.714Z,5.90
2023-05-07T10:35:32.920Z,5.80
2023-05-07T10:38:02.615Z,5.87
2023-05-07T10:40:32.831Z,4.93
2023-05-07T10:43:02.820Z,4.97
2023-05-07T10:45:35.506Z,5.10
2023-05-07T10:51:22.369Z,5.10
2023-05-07T10:54:16.534Z,5.37
2023-05-07T10:56:53.699Z,4.17
2023-05-07T10:59:32.858Z,5.33
2023-05-07T11:02:09.186Z,5.77
2023-05-07T11:05:24.165Z,5.47
2023-05-07T11:08:10.212Z,5.77
2023-05-07T11:10:53.752Z,5.37
2023-05-07T11:13:46.364Z,5.43
2023-05-07T11:16:33.827Z,5.30
2023-05-07T11:19:12.712Z,5.63
2023-05-07T11:21:44.664Z,6.10
2023-05-07T11:24:41.734Z,5.27
2023-05-07T11:27:09.844Z,5.00
2023-05-07T11:29:37.375Z,3.87
2023-05-07T11:32:09.201Z,3.93
2023-05-07T11:34:43.281Z,4.27
2023-05-07T11:37:10.691Z,4.10
2023-05-07T11:40:11.977Z,4.20
2023-05-07T11:42:41.109Z,4.03
2023-05-07T11:45:08.943Z,3.97
2023-05-07T11:47:36.256Z,4.53
2023-05-07T11:50:08.892Z,4.10
2023-05-07T11:52:36.833Z,3.80
2023-05-07T11:55:07.271Z,4.20
2023-05-07T11:57:35.665Z,3.83
2023-05-07T12:00:04.990Z,4.00
2023-05-07T12:02:39.801Z,3.97
2023-05-07T12:05:07.275Z,3.20
2023-05-07T12:07:35.079Z,3.33
2023-05-07T12:10:08.835Z,3.53
2023-05-07T12:12:43.223Z,3.80
2023-05-07T12:15:11.582Z,3.60
2023-05-07T12:17:39.404Z,3.53
2023-05-07T12:20:07.645Z,2.97
2023-05-07T12:22:34.566Z,3.60
2023-05-07T12:25:01.662Z,3.30
2023-05-07T12:27:28.670Z,3.33
2023-05-07T12:29:55.705Z,3.30
2023-05-07T12:32:23.253Z,3.50
2023-05-07T12:34:53.547Z,3.70
2023-05-07T12:37:28.584Z,3.40
2023-05-07T12:40:12.097Z,3.27
2023-05-07T12:42:41.151Z,3.20
2023-05-07T12:45:17.728Z,3.37
2023-05-07T12:47:46.282Z,3.07
2023-05-07T12:50:15.174Z,3.33
2023-05-07T12:52:42.178Z,2.83
2023-05-07T12:55:10.034Z,3.00
2023-05-07T12:57:41.682Z,2.60
2023-05-07T13:00:09.969Z,3.30
2023-05-07T13:02:41.743Z,2.80
2023-05-07T13:05:09.744Z,2.80
2023-05-07T13:07:38.099Z,3.00
2023-05-07T13:10:05.994Z,3.40
2023-05-07T13:12:33.187Z,3.10
2023-05-07T13:15:00.343Z,2.87
2023-05-07T13:17:27.399Z,3.10
2023-05-07T13:19:54.412Z,2.90
2023-05-07T13:22:21.254Z,2.73
2023-05-07T13:24:48.459Z,2.30
2023-05-07T13:27:15.355Z,2.53
2023-05-07T13:29:42.320Z,3.13
2023-05-07T13:32:09.313Z,2.97
2023-05-07T13:34:36.356Z,3.00
2023-05-07T13:37:03.219Z,3.30
2023-05-07T13:39:30.296Z,3.00
2023-05-07T13:41:57.151Z,3.40
2023-05-07T13:44:24.133Z,3.10
2023-05-07T13:46:51.470Z,3.33
2023-05-07T13:49:18.510Z,3.53
2023-05-07T13:51:45.562Z,3.30
2023-05-07T13:54:12.865Z,3.40
2023-05-07T13:56:39.989Z,3.50
2023-05-07T13:59:06.887Z,3.60
2023-05-07T14:01:33.913Z,3.53
2023-05-07T14:04:01.302Z,3.93
2023-05-07T14:06:28.355Z,3.40
2023-05-07T14:08:55.317Z,4.23
2023-05-07T14:11:22.308Z,3.80
2023-05-07T14:13:49.324Z,3.87
2023-05-07T14:16:16.390Z,3.80
2023-05-07T14:18:43.368Z,3.07
2023-05-07T14:21:12.922Z,3.57
2023-05-07T14:23:39.974Z,3.67
2023-05-07T14:26:06.900Z,4.00
2023-05-07T14:28:33.820Z,3.50
2023-05-07T14:31:01.246Z,3.30
2023-05-07T14:33:28.235Z,3.70
2023-05-07T14:35:55.795Z,3.90
2023-05-07T14:38:22.775Z,3.23
2023-05-07T14:40:49.853Z,3.50
2023-05-07T14:43:16.874Z,3.43
2023-05-07T14:45:43.784Z,3.70
2023-05-07T14:48:15.998Z,3.23
2023-05-07T14:50:43.648Z,3.43
2023-05-07T14:53:10.573Z,4.00
2023-05-07T14:55:37.693Z,4.00
2023-05-07T14:58:04.938Z,3.70
2023-05-07T15:00:34.512Z,3.53
2023-05-07T15:03:09.950Z,3.53
2023-05-07T15:05:37.928Z,3.50
2023-05-07T15:08:05.022Z,3.70
2023-05-07T15:10:32.035Z,4.00
2023-05-07T15:12:58.984Z,3.83
2023-05-07T15:15:26.095Z,3.47
2023-05-07T15:17:54.996Z,3.40
2023-05-07T15:20:22.040Z,3.60
2023-05-07T15:22:49.689Z,3.03
2023-05-07T15:25:16.995Z,4.20
2023-05-07T15:27:45.025Z,3.77
2023-05-07T15:30:13.341Z,3.40
2023-05-07T15:32:40.546Z,3.70
2023-05-07T15:35:08.637Z,3.07
2023-05-07T15:37:35.755Z,3.77
2023-05-07T15:40:07.467Z,3.87
2023-05-07T15:42:34.973Z,4.00
2023-05-07T15:45:02.380Z,3.43
2023-05-07T15:47:32.782Z,4.10
2023-05-07T15:49:59.744Z,4.30
2023-05-07T15:52:27.880Z,4.13
2023-05-07T15:54:55.258Z,4.03
2023-05-07T15:57:22.633Z,3.63
2023-05-07T15:59:49.492Z,3.73
2023-05-07T16:02:16.606Z,3.53
2023-05-07T16:04:43.563Z,3.70
2023-05-07T16:07:12.558Z,4.03
2023-05-07T16:09:39.952Z,3.60
2023-05-07T16:12:07.007Z,4.00
2023-05-07T16:14:33.859Z,3.73
2023-05-07T16:17:01.821Z,4.10
2023-05-07T16:19:29.854Z,4.30
2023-05-07T16:21:57.083Z,3.53
2023-05-07T16:24:23.996Z,4.13
2023-05-07T16:26:51.006Z,3.67
2023-05-07T16:29:17.960Z,3.70
2023-05-07T16:31:45.611Z,3.80
2023-05-07T16:34:12.557Z,3.60
2023-05-07T16:36:39.517Z,3.77
2023-05-07T16:39:06.703Z,3.57
2023-05-07T16:41:33.664Z,3.60
2023-05-07T16:44:00.673Z,2.83
2023-05-07T16:46:27.733Z,2.87
2023-05-07T16:48:55.030Z,3.20
2023-05-07T16:51:24.599Z,3.33
2023-05-07T16:53:51.684Z,3.37
2023-05-07T16:56:19.434Z,3.57
2023-05-07T16:58:46.342Z,3.30
2023-05-07T17:01:15.202Z,3.00
2023-05-07T17:03:42.348Z,2.77
2023-05-07T17:06:14.091Z,2.80
2023-05-07T17:08:44.823Z,3.07
2023-05-07T17:11:12.311Z,2.70
2023-05-07T17:13:40.225Z,3.10
2023-05-07T17:16:07.259Z,3.37
2023-05-07T17:18:35.146Z,3.00
2023-05-07T17:21:02.083Z,3.20
2023-05-07T17:23:29.191Z,3.27
2023-05-07T17:25:56.370Z,3.27
2023-05-07T17:28:23.294Z,3.17
2023-05-07T17:30:50.249Z,2.93
2023-05-07T17:33:21.478Z,3.70
2023-05-07T17:35:49.471Z,3.70
2023-05-07T17:38:16.500Z,3.90
2023-05-07T17:40:43.522Z,3.50
2023-05-07T17:43:10.501Z,3.70
2023-05-07T17:45:37.521Z,4.00
2023-05-07T17:48:05.493Z,3.40
2023-05-07T17:50:32.586Z,3.60
2023-05-07T17:53:00.127Z,3.43
2023-05-07T17:55:27.090Z,3.60
2023-05-07T17:57:54.140Z,3.60
2023-05-07T18:00:21.516Z,4.03
2023-05-07T18:02:51.249Z,3.83
2023-05-07T18:05:18.356Z,4.10
2023-05-07T18:07:45.714Z,3.80
2023-05-07T18:10:12.966Z,4.40
2023-05-07T18:12:40.382Z,4.10
2023-05-07T18:15:07.957Z,3.77
2023-05-07T18:17:34.905Z,3.83
2023-05-07T18:20:02.770Z,4.33
2023-05-07T18:22:29.763Z,4.03
2023-05-07T18:24:56.660Z,4.90
2023-05-07T18:27:23.769Z,5.40
2023-05-07T18:29:50.845Z,5.40
2023-05-07T18:32:17.775Z,5.20
2023-05-07T18:34:44.717Z,5.27
2023-05-07T18:37:11.837Z,5.43
2023-05-07T18:39:38.793Z,5.00
2023-05-07T18:42:06.666Z,4.60
2023-05-07T18:44:37.490Z,5.03
2023-05-07T18:47:07.793Z,4.70
2023-05-07T18:49:35.576Z,4.40
2023-05-07T18:52:02.731Z,5.20
2023-05-07T18:54:29.688Z,4.80
2023-05-07T18:56:58.330Z,4.97
2023-05-07T18:59:25.270Z,4.53
2023-05-07T19:01:52.287Z,5.37
2023-05-07T19:04:20.244Z,5.60
2023-05-07T19:06:47.527Z,6.47
2023-05-07T19:09:14.649Z,6.87
2023-05-07T19:11:42.119Z,6.27
2023-05-07T19:14:11.048Z,6.73
2023-05-07T19:16:38.529Z,6.57
2023-05-07T19:19:05.734Z,6.77
2023-05-07T19:21:32.854Z,6.63
2023-05-07T19:23:59.784Z,6.60
2023-05-07T19:26:26.762Z,7.43
2023-05-07T19:29:01.722Z,6.90
2023-05-07T19:31:34.211Z,7.53
2023-05-07T19:34:01.543Z,7.10
2023-05-07T19:36:28.601Z,6.93
2023-05-07T19:38:55.729Z,6.90
2023-05-07T19:41:23.070Z,7.10
2023-05-07T19:43:49.980Z,6.40
2023-05-07T19:46:17.242Z,6.87
2023-05-07T19:48:44.997Z,7.63
2023-05-07T19:51:11.934Z,6.80
2023-05-07T19:53:39.047Z,7.13
2023-05-07T19:56:10.663Z,7.30
2023-05-07T19:58:38.599Z,7.50
2023-05-07T20:01:06.406Z,7.93
2023-05-07T20:03:34.786Z,7.60
2023-05-07T20:06:02.678Z,7.53
2023-05-07T20:08:29.833Z,7.27
2023-05-07T20:10:58.801Z,7.87
2023-05-07T20:13:27.281Z,7.93
2023-05-07T20:16:01.581Z,7.60
2023-05-07T20:18:29.509Z,7.50
2023-05-07T20:20:56.750Z,7.80
2023-05-07T20:23:23.915Z,7.90
2023-05-07T20:25:50.918Z,8.07
2023-05-07T20:28:18.057Z,7.87
2023-05-07T20:30:45.052Z,8.17
2023-05-07T20:33:12.686Z,8.20
2023-05-07T20:35:39.754Z,7.53
2023-05-07T20:38:06.888Z,7.70
2023-05-07T20:40:36.974Z,8.30
2023-05-07T20:43:06.675Z,8.73
2023-05-07T20:45:33.791Z,8.63
2023-05-07T20:48:01.126Z,8.70
2023-05-07T20:50:28.181Z,8.63
2023-05-07T20:52:55.400Z,9.03
2023-05-07T20:55:23.021Z,9.20
2023-05-07T20:57:50.107Z,9.70
2023-05-07T21:00:17.816Z,9.67
2023-05-07T21:02:45.364Z,10.70
2023-05-07T21:05:12.408Z,10.80
2023-05-07T21:07:39.674Z,11.53
2023-05-07T21:10:06.998Z,11.83
2023-05-07T21:12:33.956Z,11.77
2023-05-07T21:15:00.969Z,12.67
2023-05-07T21:17:30.532Z,12.50
2023-05-07T21:19:57.512Z,13.00
2023-05-07T21:22:24.442Z,12.70
2023-05-07T21:24:51.358Z,13.33
2023-05-07T21:27:18.291Z,13.93
2023-05-07T21:29:46.149Z,12.80
2023-05-07T21:32:13.074Z,13.80
2023-05-07T21:34:39.928Z,13.40
2023-05-07T21:37:07.126Z,14.77
2023-05-07T21:39:34.002Z,14.93
2023-05-07T21:42:00.895Z,14.50
2023-05-07T21:44:29.832Z,14.67
2023-05-07T21:46:57.053Z,13.73
2023-05-07T21:49:23.949Z,15.70
2023-05-07T21:51:50.953Z,15.23
2023-05-07T21:54:18.052Z,15.57
2023-05-07T21:56:45.524Z,15.87
2023-05-07T21:59:12.673Z,14.77
2023-05-07T22:01:39.691Z,15.20
2023-05-07T22:04:07.004Z,14.80
2023-05-07T22:06:34.115Z,14.93
2023-05-07T22:09:01.014Z,14.33
2023-05-07T22:11:27.929Z,14.90
2023-05-07T22:13:55.085Z,15.37
2023-05-07T22:16:22.064Z,15.13
2023-05-07T22:18:49.626Z,14.60
2023-05-07T22:21:16.761Z,15.57
2023-05-07T22:23:43.657Z,15.10
2023-05-07T22:26:13.829Z,15.57
2023-05-07T22:28:41.033Z,15.33
2023-05-07T22:31:07.985Z,14.77
2023-05-07T22:33:35.222Z,13.47
2023-05-07T22:36:02.344Z,13.83
2023-05-07T22:38:29.384Z,15.67
2023-05-07T22:40:56.395Z,14.50
2023-05-07T22:43:23.299Z,14.33
2023-05-07T22:45:50.336Z,15.57
2023-05-07T22:48:17.328Z,15.13
2023-05-07T22:50:44.228Z,14.17
2023-05-07T22:53:11.085Z,15.93
2023-05-07T22:55:38.161Z,15.87
2023-05-07T22:58:05.135Z,13.07
2023-05-07T23:00:32.135Z,14.00
2023-05-07T23:02:59.052Z,15.07
2023-05-07T23:05:26.141Z,14.57
2023-05-07T23:07:53.038Z,16.87
2023-05-07T23:10:20.144Z,17.30
2023-05-07T23:12:49.337Z,18.07
2023-05-07T23:15:17.381Z,17.27
2023-05-07T23:17:45.370Z,17.00
2023-05-07T23:20:13.969Z,17.27
2023-05-07T23:22:41.097Z,18.50
2023-05-07T23:25:09.099Z,17.23
2023-05-07T23:27:36.206Z,17.23
2023-05-07T23:30:03.691Z,17.23
2023-05-07T23:32:33.700Z,17.57
2023-05-07T23:35:01.034Z,17.30
2023-05-07T23:37:27.930Z,16.10
2023-05-07T23:39:55.086Z,16.00
2023-05-07T23:42:22.175Z,15.50
2023-05-07T23:44:49.249Z,15.63
2023-05-07T23:47:16.271Z,14.93
2023-05-07T23:49:43.354Z,13.67
2023-05-07T23:52:10.545Z,14.97
2023-05-07T23:54:37.540Z,13.50
2023-05-07T23:57:04.582Z,13.97
2023-05-07T23:59:31.495Z,15.47
